Olympic National Park, WA

1:30 PM PDT on August 20, 2014 (GMT -0700)
Lake Dawn | Change Station
CLOSE
Current Station
Personal Weather Station
Location: Port Angeles, WA
Elevation: 1864 ft
Nearby Weather Stations

Elev 1864 ft 48.04 °N, 123.43 °W | Updated 29 seconds ago

Partly Cloudy
Partly Cloudy
64.8 °F
Feels Like 64.8 °F
N
6.0
Wind Variable Wind from SE
Gusts 6.9 mph

Today
High -- | Low -- °F
--% Chance of Precip.
Yesterday
High -- | Low -- °F
Precip. -- in
6:15 AM 8:18 PM
Waning Crescent, 19% visible
Pressure 29.97 in
Visibility 10.0 miles
Clouds Few 7500 ft
Dew Point 54 °F
Humidity 67%
Rainfall 0.00 in
Snow Depth Not available.
UV 8 out of 12
Pollen 2.70 out of 12
PM2.5 Good
Flu Activity Not available.
METAR KCLM 201953Z AUTO 08004KT 10SM FEW075 18/12 A2997 RMK AO2 SLP147 T01830117 $

More Conditions Fewer Conditions

Pressure 29.97 in
Visibility 10.0 miles
Clouds Few 7500 ft
Dew Point 54 °F
Humidity 67%
Rainfall 0.00 in
Snow Depth Not available.
UV 8 out of 12
Pollen 2.70 out of 12
PM2.5 Good
Flu Activity Not available.
METAR KCLM 201953Z AUTO 08004KT 10SM FEW075 18/12 A2997 RMK AO2 SLP147 T01830117 $

More Conditions Fewer Conditions

10-Day Weather Forecast

Almanac

Astronomy

Aug. 20, 2014 Rise Set
Actual Time 6:15 AM PDT 8:18 PM PDT
Civil Twilight 5:42 AM PDT 8:51 PM PDT
Nautical Twilight 5:00 AM PDT 9:32 PM PDT
Astronomical Twilight 4:14 AM PDT 10:18 PM PDT
Moon 1:52 AM PDT 5:15 PM PDT
Length of Visible Light 15h 09m
Length of Day
14h 02m
Tomorrow will be 3m 13s shorter.
Waning Crescent, 19% of the Moon is Illuminated
Today
Waning Crescent
Aug 25
New
Sep 2
First Quarter
Sep 8
Full
Sep 15
Last Quarter

Today's Extremes

State Highs State Lows

Community

WunderPhotos

Upload Photos

1,745,750 photos uploaded!

WunderBlogs® & News

By Dr. Jeff Masters
Director of Meteorology, Weather Underground
By Kari Strenfel
Meteorologist, Weather Underground
By Christopher C. Burt
Weather Historian, Weather Underground
August 20, 2014
August 20, 2014
August 20, 2014

Nearby

Air Quality

  Air Quality AQ Index Pollutant
Yesterday Good
PM2.5
Current Good
PM2.5

Snow Depth

Station Depth Elevation
Dungeness 4 in 4100 ft
Alpine Meadows 0 in 3500 ft
Burnt Mountain 0 in 4200 ft
Meadows Pass 0 in 3500 ft
Stampede Pass 3 in 3860 ft

Earthquake Activity

City Distance Mag. Time & Date
No recent earthquake activity has been reported nearby.
Minimum magnitude displayed is 2.5.

Coastal Water Temperatures

Place Temperature
Port Angeles, WA 52.0 °F
Friday Harbor, WA 53.1 °F
Port Townsend, WA 55.9 °F
La Push, WA 48.9 °F

Nearby Weather Stations